Aeroporto :
LOGIN :

Iscrizione | Disclaimer

   EN    FR    IT 

 










Sommario :    VFR   VFR Marginale   IFR   IFR Intensivo   IFR Molto Intensivo
Visibilità : 
Base nubi : 
>= 8 km
>= 3000ft
5 / 8 km
1000 / 3000 ft
1500m / 5 km
500 / 1000 ft
800 / 1500m
200 / 500 ft
< 800m
< 200 ft
Simboli :   Temporali  Nebbia  Neve Forte  Precipitazioni Forti  Vento > 20 kt
SIGMETs :   Varie  Temporali  Ghiacco  Turbolenza  Onda orograficha  Ceneri Vulcaniche






- Altitudine del aeroporto : 160 ft
- Codice IATA : FMO


EDDG - Münster Osnabrück Int.

ULTIMO METAR :
  • 180920Z 22011KT 9999 BKN013 05/02 Q1022 TEMPO SCT013

METARs OBSOLETI :
  • 180850Z 20009KT 180V240 9999 FEW013 BKN015 05/01 Q1022 TEMPO BKN013
  • 180820Z 21007KT 180V250 9999 FEW014 BKN032 04/01 Q1022 TEMPO BKN013
  • 180750Z 21009KT 170V240 9999 SCT013 BKN016 04/01 Q1022 TEMPO BKN013
  • 180720Z 22009KT 180V250 9999 BKN014 BKN044 04/01 Q1022 TEMPO SCT014
  • 180650Z 21010KT 180V240 9999 SCT014 SCT046 04/01 Q1021 TEMPO BKN013

TAF TAF EDDG
Valido dal 18 a 06 ore il 19 a 06 ore UTC


180500Z 1806/1906 23010KT 9999 SCT030
PROB30
TEMPO 1806/1809 BKN012
PROB30
TEMPO 1812/1818 SHRAGS BKN020CB
BECMG 1815/1818 26005KT



MetMap, La meteo Aeronautica in un colpo d'occhio ! - Copyright ORBIFLY Dicembre 2007 - Disclaimer

ORBIFLY MET'MAP TEAM :

Programmazione e sviluppo : Alexandra Zaïnal
Concezione : Baudouin d'Aumeries
Aiuto per la programmazione : Marc-Olivier Méhu
Supporto tecnico e logistico : Manuel Goepfert
Aiuto per la traduzione : Arnaldo La Scala

Contatto : metmap@orbifly.com




FONTI E CREDITI :

   NOAA